Terminal Aerodrome Forecast
Issued by NWS

Home | Current Version | Previous Version | Text Only | Print | Product List | Glossary On
Versions: 1 2 3 4 5 6 7 8 9 10 11 12 13 14 15 16 17 18 19 20
000
FTUS46 KOTX 240538
TAFCOE
TAF
KCOE 240538Z 2406/2506 16005KT P6SM BKN025 OVC040
     FM240700 16006KT P6SM -RA BKN025 OVC060
     FM241000 17009KT P6SM -RA BKN015 OVC040
      TEMPO 2415/2418 4SM RA BR BKN009 OVC015
     FM241900 22011G24KT P6SM -SHRA BKN028 BKN050
     FM242200 22012G26KT P6SM -SHRA VCTS SCT050CB BKN080
     FM250200 16005KT P6SM BKN060=

USA.gov is the U.S. government's official web portal to all federal, state and local government web resources and services.